»·PEaware :: N374PC KSPS-KSKF

N374PC :: KSPS-KSKF

FLIGHT INFORMATION

Flight Status: Arrived
Operator: Privately registered:
United States
More flights under this callsign
Pilot: Andrew J. (13363)
Aircraft: PILATUS PC-12 EAGLE
(PC12)
More flights by this aircraft type
Origin: KSPS Sheppard AFB/Wichita Falls Mu
United States
Destination: KSKF Lackland AFB Kelly Fld Annex
United States
More flights between these airports :: More routes between these airports
Route: SPS BATIK J23 SAT
File this flight plan on PilotEdge
Remarks: FIFE TREE
Altitude:
(Current/Filed)
20,000ft
Speed:
(Current/Filed)
300kts
Departed: 24-Apr-18 08:08 PM
Arrived: 24-Apr-18 09:20 PM
Distance/Time
Traveled:
276nm/1:12
Distance/Time
To Go:
Arrived

Flight Plot

Page will automatically refresh every two minutes.

Flight plan parsing failed; only flown route is shown


Map Options




Map Legend


Flown Route
Filed Route
Departure Airport
Arrival Airport
Navaid (VOR, NDB)
Fix

Horizontal Profiles

Position Reports

Time Latitude Longitude Heading Altitude Ground
Speed
24-Apr-18 20:05 33.982175 -98.495775 180 1005ft 0kts
24-Apr-18 20:06 33.982175 -98.495775 180 1005ft 0kts
24-Apr-18 20:07 33.972491 -98.495894 177 1066ft 112kts
24-Apr-18 20:08 33.949833 -98.470261 107 2820ft 130kts
24-Apr-18 20:09 33.933536 -98.430191 128 4883ft 141kts
24-Apr-18 20:10 33.905342 -98.396897 135 6994ft 146kts
24-Apr-18 20:11 33.875397 -98.363672 133 9057ft 149kts
24-Apr-18 20:12 33.844444 -98.329067 130 10918ft 165kts
24-Apr-18 20:13 33.808537 -98.289076 136 12757ft 186kts
24-Apr-18 20:14 33.770159 -98.246457 137 14733ft 194kts
24-Apr-18 20:15 33.729615 -98.201440 139 16718ft 201kts
24-Apr-18 20:16 33.688091 -98.155400 140 18611ft 209kts
24-Apr-18 20:17 33.644815 -98.107497 140 20456ft 215kts
24-Apr-18 20:18 33.600476 -98.058075 139 22199ft 222kts
24-Apr-18 20:19 33.554839 -98.007063 140 23680ft 234kts
24-Apr-18 20:20 33.502927 -97.950131 140 24134ft 277kts
24-Apr-18 20:21 33.437350 -97.897892 176 24129ft 288kts
24-Apr-18 20:22 33.359385 -97.904729 194 24129ft 282kts
24-Apr-18 20:23 33.282109 -97.916025 194 24130ft 279kts
24-Apr-18 20:24 33.205537 -97.927143 194 24130ft 277kts
24-Apr-18 20:25 33.129441 -97.938145 194 24130ft 276kts
24-Apr-18 20:26 33.053334 -97.949124 194 24131ft 276kts
24-Apr-18 20:27 32.977311 -97.960066 194 24131ft 276kts
24-Apr-18 20:28 32.900946 -97.971038 193 24131ft 276kts
24-Apr-18 20:29 32.825658 -97.981831 193 24127ft 276kts
24-Apr-18 20:30 32.750194 -97.992651 192 24102ft 275kts
24-Apr-18 20:31 32.674522 -98.003963 193 24101ft 274kts
24-Apr-18 20:32 32.598907 -98.015848 193 24101ft 274kts
24-Apr-18 20:33 32.523399 -98.027573 193 24101ft 274kts
24-Apr-18 20:34 32.447701 -98.039283 193 24101ft 274kts
24-Apr-18 20:35 32.372510 -98.050894 193 24122ft 273kts
24-Apr-18 20:36 32.297225 -98.062509 193 24129ft 274kts
24-Apr-18 20:37 32.221789 -98.074137 193 24129ft 273kts
24-Apr-18 20:38 32.147222 -98.085586 193 24181ft 271kts
24-Apr-18 20:39 32.072532 -98.097067 193 24184ft 271kts
24-Apr-18 20:40 31.997898 -98.108508 193 24184ft 272kts
24-Apr-18 20:41 31.922907 -98.119979 193 24184ft 272kts
24-Apr-18 20:42 31.872331 -98.127723 193 24180ft 272kts
24-Apr-18 20:43 31.798470 -98.139018 193 24180ft 272kts
24-Apr-18 20:44 31.723491 -98.150482 193 24127ft 271kts
24-Apr-18 20:45 31.648975 -98.161810 193 24127ft 269kts
24-Apr-18 20:46 31.574988 -98.173006 193 24127ft 269kts
24-Apr-18 20:47 31.501050 -98.184102 193 24127ft 268kts
24-Apr-18 20:48 31.427477 -98.195253 193 24181ft 267kts
24-Apr-18 20:49 31.353945 -98.206394 193 24181ft 268kts
24-Apr-18 20:50 31.279944 -98.217553 193 24182ft 270kts
24-Apr-18 20:51 31.205546 -98.228764 193 24182ft 271kts
24-Apr-18 20:52 31.130881 -98.240011 193 24129ft 272kts
24-Apr-18 20:53 31.055908 -98.251256 193 24128ft 271kts
24-Apr-18 20:54 30.981420 -98.262443 193 24128ft 271kts
24-Apr-18 20:55 30.906666 -98.273613 193 24128ft 271kts
24-Apr-18 20:56 30.840283 -98.283546 193 24126ft 271kts
24-Apr-18 20:57 30.765751 -98.294679 193 24126ft 271kts
24-Apr-18 20:58 30.691189 -98.305797 193 24125ft 271kts
24-Apr-18 20:59 30.612706 -98.317686 192 23141ft 292kts
24-Apr-18 21:00 30.532504 -98.329622 191 22129ft 292kts
24-Apr-18 21:01 30.453398 -98.341380 191 21013ft 285kts
24-Apr-18 21:02 30.374511 -98.353158 190 19513ft 289kts
24-Apr-18 21:03 30.294953 -98.364894 190 18008ft 289kts
24-Apr-18 21:04 30.215961 -98.376517 190 16508ft 286kts
24-Apr-18 21:05 30.137834 -98.387999 190 15014ft 284kts
24-Apr-18 21:06 30.060183 -98.399418 189 13510ft 279kts
24-Apr-18 21:07 29.985195 -98.410393 189 12231ft 270kts
24-Apr-18 21:08 29.911494 -98.421182 189 11034ft 265kts
24-Apr-18 21:09 29.839922 -98.431961 189 9839ft 262kts
24-Apr-18 21:10 29.768561 -98.442560 187 8633ft 258kts
24-Apr-18 21:11 29.698555 -98.452767 185 7440ft 253kts
24-Apr-18 21:12 29.630799 -98.466860 200 6246ft 248kts
24-Apr-18 21:13 29.567728 -98.496855 213 4816ft 249kts
24-Apr-18 21:14 29.532030 -98.554294 237 3443ft 196kts
24-Apr-18 21:15 29.497235 -98.595653 207 2962ft 172kts
24-Apr-18 21:16 29.458687 -98.609165 162 2526ft 125kts
24-Apr-18 21:17 29.426711 -98.596815 159 1478ft 112kts
24-Apr-18 21:18 29.402465 -98.587744 159 773ft 102kts
24-Apr-18 21:19 29.388396 -98.582529 162 693ft 33kts
24-Apr-18 21:20 29.385508 -98.576710 92 693ft 20kts
24-Apr-18 21:21 29.385786 -98.574694 340 693ft 0kts

Navigation Log

Ident Type
Flight plan parsing failed, navigation log unavailable